88NV weather

Black Rock City Airport
Gerlach, Nevada, United States

Public forecast

Using degrees Fahrenheit for public forecast. Weather courtesy of forecast.io.

METAR (pilot weather report)

Closest report is Derby Field, 51.0 nm (94.4 km) SE. Retrieved 2019/07/18 21:53 UTC (43 minutes ago):

KLOL 182153Z AUTO 15009KT 10SM CLR 34/03 A2991 RMK AO2 SLP080 T03440028

TAF (pilot weather forecast)

Forecast is more than 12 hours old.

Closest forecast is Derby Field, 51.0 nm (94.4 km) SE. Retrieved 2010/01/05 05:22 UTC (10 years ago):

TAF KLOL 050522Z 0506/0606 00000KT 1/4SM FZFG VV001 FM052000 VRB03KT 3SM BR OVC002 AMD NOT SKED